AirNav   Bose ProFlight Series 2 Headset
 
 1164 users online  

2MA9 Digital Heliport
Tewksbury, Massachusetts, USA

GOING TO TEWKSBURY?


FAA INFORMATION EFFECTIVE 02 JANUARY 2020

Location

FAA Identifier: 2MA9
Lat/Long: 42-38-21.3300N 071-13-28.2100W
42-38.355500N 071-13.470167W
42.6392583,-71.2245028
(estimated)
Elevation: 130 ft. / 40 m (estimated)
Variation: 16W (1980)
From city: 2 miles SE of TEWKSBURY, MA
Time zone: UTC -5 (UTC -4 during Daylight Saving Time)
Zip code: 01876

Heliport Operations

Heliport use: Private use. Permission required prior to landing
Activation date: 10/1986
Control tower: no
ARTCC: BOSTON CENTER
FSS: BRIDGEPORT FLIGHT SERVICE STATION
Attendance: UNATNDD
Wind indicator: yes
Segmented circle: no

Heliport Communications

UNICOM: 123.05
WX ASOS at LWM (6 nm NE): PHONE 978-687-8017
WX ASOS at BED (11 nm S): 124.6 (781-274-9733)
WX ASOS at BVY (14 nm E): PHONE 978-921-5042
WX AWOS-3PT at ASH (15 nm NW): 125.1 (603-578-0473)
WX ASOS at BOS (19 nm SE): PHONE 617-567-5762
WX ASOS at MHT (20 nm NW): 119.55 (603-621-1766)

Nearby radio navigation aids

VOR radial/distance  VOR name  Freq  Var
LWMr238/8.3LAWRENCE VOR/DME112.5015W
MHTr170/15.2MANCHESTER VOR/DME114.4015W
BOSr344/19.8BOSTON VOR/DME112.7016W
PSMr229/31.8PEASE VOR/DME116.5016W
GDMr095/37.2GARDNER VOR/DME110.6014W
CONr171/38.1CONCORD VOR/DME112.9015W

 
NDB name  Hdg/Dist  Freq  Var  ID
ROLLINS223/39.026016WESG . ... --.

Heliport Services

Runway Information

Helipad H1

Dimensions: 26 x 24 ft. / 8 x 7 m
Surface: concrete
Traffic pattern: leftleft

Heliport Ownership and Management from official FAA records

Ownership: Privately-owned
Owner: DIGITAL EQUIPMENT CORP.
HANSCOM FIELD CORP.
BEDFORD, MA 01730
Phone 508-493-7200
Manager: M. HENRY WIFHOLM
HANSCOM FIELD CORP.
BEDFORD, MA 01730
Phone 508-493-7200

Additional Remarks

FOR CD CTC BOSTON APCH AT 603-594-5554.

Instrument Procedures

There are no published instrument procedures at 2MA9.

Some nearby airports with instrument procedures:

KLWM - Lawrence Municipal Airport (6 nm NE)
KBED - Laurence G Hanscom Field Airport (11 nm S)
KBVY - Beverly Regional Airport (14 nm E)
KASH - Boire Field Airport (15 nm NW)
6B6 - Minute Man Air Field (17 nm SW)
KBOS - General Edward Lawrence Logan International Airport (19 nm SE)
KMHT - Manchester Airport (20 nm NW)
 
Loc | Ops | Rwys | IFR | FBO | Links
Com | Nav | Svcs | Stats | Notes
Area around 2MA9 (Digital Heliport)
 
Road maps at: MapQuest Bing Google
 
Aerial photo
No photo
 
Sectional chart

 
Airport distance calculator
Flying to Digital Heliport? Find the distance to fly.

From to 2MA9

Sunrise and sunset
Times for 26-Jan-2020
 Local
(UTC-5)
 Zulu
(UTC)
Morning civil twilight06:3611:36
Sunrise07:0612:06
Sunset16:4921:49
Evening civil twilight17:1922:19

Current date and time
Zulu (UTC)  26-Jan-2020 19:07:48
Local (UTC-5)  26-Jan-2020 14:07:48
 
METAR
KLWM 
6nm NE 
261854Z 25011G16KT 10SM OVC044 08/M01 A2963 RMK AO2 SLP034 T00781011 $
KBED 
11nm S 
261851Z 25015G20KT 10SM BKN047 09/M02 A2963 RMK AO2 SLP047 T00891022
KBVY 
14nm E 
261853Z 28013G21KT 10SM OVC047 09/M01 A2961 RMK AO2 SLP023 T00941006 $
KASH 
15nm NW 
261856Z 28010G19KT 10SM BKN041 BKN050 08/M02 A2963 RMK AO2 SLP039 T00781017
KBOS 
19nm SE 
261854Z 25019G26KT 10SM SCT046 10/M02 A2963 RMK AO2 PK WND 27026/1852 SLP032 T01001017
KMHT 
20nm NW 
261853Z 26009G15KT 10SM BKN048 08/M03 A2960 RMK AO2 SLP040 T00831028
TAF
KBED 
11nm S 
261722Z 2618/2718 26013G19KT P6SM SCT040 FM262000 26009KT P6SM SCT040 FM270700 24006KT P6SM FEW050 BKN150 FM271600 27009KT P6SM BKN050
KBOS 
19nm SE 
261722Z 2618/2724 26013G21KT P6SM SCT050 FM270000 25009KT P6SM FEW250 FM271400 25010G17KT P6SM BKN050 FM272300 28012G20KT P6SM BKN045
KMHT 
20nm NW 
261720Z 2618/2718 28010KT P6SM FEW030 FM270200 22003KT P6SM BKN100
NOTAMs
Click for the latest NOTAMs
NOTAMs are issued by the DoD/FAA and will open in a separate window not controlled by AirNav.

 

 
 

Would you like to see your business listed on this page?

 If your business provides an interesting product or service to pilots, flight crews, aircraft, or users of the Digital Heliport, you should consider listing it here.  To start the listing process, click on the button below
 
Add a business
 

Other Pages about Digital Heliport

Update a link
 
Copyright © AirNav, LLC. All rights reserved. Privacy Policy  Contact